createdAt,value
2023-11-30T00:01:35.822Z,10.47
2023-11-30T00:04:38.459Z,9.98
2023-11-30T00:07:41.360Z,12.05
2023-11-30T00:10:44.043Z,11.60
2023-11-30T00:13:46.694Z,9.70
2023-11-30T00:16:49.368Z,12.20
2023-11-30T00:19:52.053Z,10.18
2023-11-30T00:22:54.735Z,11.05
2023-11-30T00:25:57.329Z,10.85
2023-11-30T00:29:00.250Z,9.53
2023-11-30T00:32:02.876Z,10.07
2023-11-30T00:35:06.074Z,10.77
2023-11-30T00:38:08.792Z,10.68
2023-11-30T00:41:18.072Z,9.95
2023-11-30T00:44:22.615Z,11.13
2023-11-30T00:47:25.397Z,9.13
2023-11-30T00:50:28.154Z,10.90
2023-11-30T00:53:31.364Z,10.80
2023-11-30T00:56:34.020Z,9.35
2023-11-30T00:59:36.623Z,9.97
2023-11-30T01:02:39.934Z,10.73
2023-11-30T01:05:43.240Z,11.15
2023-11-30T01:08:45.880Z,10.18
2023-11-30T01:11:48.554Z,9.70
2023-11-30T01:14:51.474Z,11.93
2023-11-30T01:17:54.286Z,9.13
2023-11-30T01:20:57.956Z,11.55
2023-11-30T01:24:00.744Z,9.88
2023-11-30T01:27:03.642Z,8.57
2023-11-30T01:30:06.835Z,8.83
2023-11-30T01:33:09.604Z,8.40
2023-11-30T01:36:12.421Z,7.63
2023-11-30T01:39:16.875Z,6.32
2023-11-30T01:42:19.605Z,9.13
2023-11-30T01:45:22.343Z,8.60
2023-11-30T01:48:25.271Z,9.40
2023-11-30T01:51:28.478Z,10.05
2023-11-30T01:54:31.577Z,9.15
2023-11-30T01:57:34.371Z,7.68
2023-11-30T02:00:38.081Z,8.63
2023-11-30T02:03:41.432Z,8.60
2023-11-30T02:06:47.716Z,7.30
2023-11-30T02:09:50.447Z,9.35
2023-11-30T02:12:53.118Z,9.13
2023-11-30T02:15:55.745Z,11.07
2023-11-30T02:18:58.900Z,8.13
2023-11-30T02:22:01.595Z,10.48
2023-11-30T02:25:04.532Z,11.60
2023-11-30T02:28:07.229Z,9.80
2023-11-30T02:31:10.017Z,8.67
2023-11-30T02:34:12.639Z,9.47
2023-11-30T02:37:15.319Z,9.77
2023-11-30T02:40:17.960Z,8.60
2023-11-30T02:43:20.662Z,8.45
2023-11-30T02:46:23.451Z,8.27
2023-11-30T02:49:26.098Z,8.60
2023-11-30T02:52:28.725Z,7.00
2023-11-30T02:55:31.356Z,9.48
2023-11-30T02:58:33.966Z,9.68
2023-11-30T03:01:46.855Z,9.47
2023-11-30T03:04:49.557Z,7.83
2023-11-30T03:07:53.133Z,9.43
2023-11-30T03:10:55.793Z,10.70
2023-11-30T03:13:58.448Z,7.97
2023-11-30T03:17:01.225Z,9.77
2023-11-30T03:20:04.003Z,9.10
2023-11-30T03:23:06.659Z,10.05
2023-11-30T03:26:09.294Z,8.38
2023-11-30T03:29:12.219Z,8.65
2023-11-30T03:32:15.296Z,8.80
2023-11-30T03:35:17.942Z,7.67
2023-11-30T03:38:20.668Z,7.32
2023-11-30T03:41:24.860Z,7.75
2023-11-30T03:44:27.618Z,6.80
2023-11-30T03:47:30.291Z,5.97
2023-11-30T03:50:33.009Z,7.10
2023-11-30T03:53:35.821Z,7.28
2023-11-30T03:56:38.588Z,7.30
2023-11-30T03:59:41.248Z,7.35
2023-11-30T04:02:44.048Z,7.47
2023-11-30T04:05:46.734Z,7.40
2023-11-30T04:08:52.659Z,8.27
2023-11-30T04:11:55.626Z,8.80
2023-11-30T04:14:58.344Z,8.27
2023-11-30T04:18:01.409Z,8.33
2023-11-30T04:21:06.909Z,8.33
2023-11-30T04:24:09.774Z,6.97
2023-11-30T04:27:13.267Z,7.57
2023-11-30T04:30:16.116Z,8.93
2023-11-30T04:33:19.135Z,8.53
2023-11-30T04:36:21.846Z,5.90
2023-11-30T04:39:25.371Z,6.43
2023-11-30T04:42:29.353Z,7.07
2023-11-30T04:45:32.479Z,7.13
2023-11-30T04:48:35.186Z,5.20
2023-11-30T04:51:38.484Z,7.67
2023-11-30T04:54:41.275Z,8.27
2023-11-30T04:57:43.978Z,8.15
2023-11-30T05:00:46.659Z,8.43
2023-11-30T05:03:49.450Z,6.30
2023-11-30T05:06:52.199Z,8.17
2023-11-30T05:09:55.031Z,8.13
2023-11-30T05:12:57.731Z,8.10
2023-11-30T05:16:01.151Z,6.50
2023-11-30T05:19:03.785Z,7.60
2023-11-30T05:22:06.401Z,7.07
2023-11-30T05:25:09.231Z,6.75
2023-11-30T05:28:11.934Z,7.97
2023-11-30T05:31:14.835Z,7.97
2023-11-30T05:34:17.645Z,8.47
2023-11-30T05:37:20.411Z,10.00
2023-11-30T05:40:23.030Z,10.18
2023-11-30T05:43:25.738Z,10.60
2023-11-30T05:46:28.357Z,9.60
2023-11-30T05:49:30.967Z,8.83
2023-11-30T05:52:33.655Z,9.20
2023-11-30T05:55:37.023Z,10.05
2023-11-30T05:58:39.826Z,9.10
2023-11-30T06:01:42.514Z,9.65
2023-11-30T06:04:53.116Z,9.03
2023-11-30T06:07:55.937Z,7.43
2023-11-30T06:10:58.612Z,7.90
2023-11-30T06:14:02.004Z,8.25
2023-11-30T06:17:05.173Z,8.85
2023-11-30T06:20:11.792Z,12.37
2023-11-30T06:23:14.685Z,10.60
2023-11-30T06:26:17.360Z,10.43
2023-11-30T06:29:20.317Z,10.82
2023-11-30T06:32:23.628Z,10.65
2023-11-30T06:35:27.228Z,12.87
2023-11-30T06:38:31.054Z,12.43
2023-11-30T06:41:33.726Z,11.73
2023-11-30T06:44:36.497Z,12.15
2023-11-30T06:47:39.627Z,12.80
2023-11-30T06:50:42.321Z,12.60
2023-11-30T06:53:46.512Z,14.50
2023-11-30T06:56:49.982Z,11.85
2023-11-30T06:59:54.203Z,10.82
2023-11-30T07:02:57.033Z,17.25
2023-11-30T07:06:02.861Z,18.63
2023-11-30T07:09:07.123Z,7.70
2023-11-30T07:12:12.924Z,7.43
2023-11-30T07:15:17.339Z,8.85
2023-11-30T07:18:21.244Z,9.20
2023-11-30T07:21:24.138Z,8.33
2023-11-30T07:24:26.894Z,8.40
2023-11-30T07:27:29.680Z,9.60
2023-11-30T07:30:32.447Z,9.57
2023-11-30T07:33:40.974Z,11.18
2023-11-30T07:36:43.853Z,11.97
2023-11-30T07:39:46.830Z,10.57
2023-11-30T07:42:57.465Z,12.57
2023-11-30T07:46:01.059Z,11.35
2023-11-30T07:49:05.718Z,10.38
2023-11-30T07:52:08.753Z,10.97
2023-11-30T07:55:14.864Z,10.80
2023-11-30T07:58:19.026Z,14.15
2023-11-30T08:01:21.767Z,13.65
2023-11-30T08:04:24.657Z,13.88
2023-11-30T08:07:27.874Z,14.50
2023-11-30T08:10:30.580Z,14.33
2023-11-30T08:13:34.653Z,11.30
2023-11-30T08:16:39.895Z,14.23
2023-11-30T08:19:44.446Z,14.45
2023-11-30T08:22:47.102Z,14.23
2023-11-30T08:25:49.847Z,11.43
2023-11-30T08:28:52.562Z,10.20
2023-11-30T08:31:55.236Z,10.88
2023-11-30T08:34:57.906Z,9.18
2023-11-30T08:38:00.578Z,9.87
2023-11-30T08:41:04.473Z,10.40
2023-11-30T08:44:07.225Z,9.70
2023-11-30T08:47:09.923Z,10.57
2023-11-30T08:50:13.299Z,11.77
2023-11-30T08:53:17.269Z,14.17
2023-11-30T08:56:20.269Z,16.13
2023-11-30T08:59:22.940Z,14.98
2023-11-30T09:02:25.961Z,15.68
2023-11-30T09:05:28.749Z,12.35
2023-11-30T09:08:31.532Z,12.23
2023-11-30T09:11:35.464Z,11.73
2023-11-30T09:14:38.410Z,11.38
2023-11-30T09:17:41.675Z,11.52
2023-11-30T09:20:45.268Z,11.45
2023-11-30T09:23:47.931Z,12.27
2023-11-30T09:26:52.787Z,15.37
2023-11-30T09:29:57.477Z,14.13
2023-11-30T09:33:00.505Z,12.95
2023-11-30T09:36:03.572Z,13.60
2023-11-30T09:39:09.324Z,13.97
2023-11-30T09:42:17.467Z,14.33
2023-11-30T09:45:21.424Z,14.05
2023-11-30T09:48:24.412Z,17.85
2023-11-30T09:51:39.734Z,16.92
2023-11-30T09:54:43.368Z,20.90
2023-11-30T09:57:46.164Z,16.70
2023-11-30T10:00:49.090Z,20.58
2023-11-30T10:03:54.373Z,16.80
2023-11-30T10:06:57.901Z,15.07
2023-11-30T10:10:05.011Z,15.07
2023-11-30T10:13:09.277Z,17.17
2023-11-30T10:16:12.205Z,14.27
2023-11-30T10:19:15.062Z,14.65
2023-11-30T10:22:17.796Z,13.10
2023-11-30T10:25:22.072Z,14.03
2023-11-30T10:28:24.944Z,11.90
2023-11-30T10:31:30.604Z,12.13
2023-11-30T10:34:43.993Z,11.77
2023-11-30T10:37:51.603Z,10.93
2023-11-30T10:41:00.952Z,11.43
2023-11-30T10:44:06.200Z,11.97
2023-11-30T10:47:12.518Z,11.40
2023-11-30T10:50:16.627Z,11.63
2023-11-30T10:53:36.811Z,11.25
2023-11-30T10:56:40.253Z,11.20
2023-11-30T10:59:49.348Z,12.03
2023-11-30T11:02:53.442Z,11.73
2023-11-30T11:05:57.430Z,12.23
2023-11-30T11:09:02.243Z,11.93
2023-11-30T11:12:05.366Z,12.13
2023-11-30T11:15:15.797Z,12.20
2023-11-30T11:18:19.718Z,13.13
2023-11-30T11:21:26.704Z,14.20
2023-11-30T11:24:30.766Z,15.20
2023-11-30T11:27:34.640Z,12.80
2023-11-30T11:30:45.549Z,14.67
2023-11-30T11:33:49.898Z,12.68
2023-11-30T11:36:52.609Z,12.25
2023-11-30T11:39:56.344Z,12.65
2023-11-30T11:43:00.649Z,12.80
2023-11-30T11:46:03.475Z,13.33
2023-11-30T11:49:06.308Z,13.20
2023-11-30T11:52:10.257Z,13.88
2023-11-30T11:55:14.914Z,12.05
2023-11-30T11:58:17.599Z,12.73
2023-11-30T12:01:20.314Z,14.00
2023-11-30T12:04:27.641Z,13.30
2023-11-30T12:07:30.330Z,11.98
2023-11-30T12:10:40.761Z,12.75
2023-11-30T12:13:43.690Z,13.90
2023-11-30T12:16:46.431Z,13.73
2023-11-30T12:19:49.102Z,13.65
2023-11-30T12:22:52.492Z,13.05
2023-11-30T12:25:56.648Z,14.43
2023-11-30T12:28:59.621Z,13.97
2023-11-30T12:32:02.454Z,12.27
2023-11-30T12:35:06.152Z,14.20
2023-11-30T12:38:09.500Z,13.55
2023-11-30T12:41:12.179Z,14.10
2023-11-30T12:44:14.973Z,14.93
2023-11-30T12:47:17.648Z,14.60
2023-11-30T12:50:20.832Z,13.38
2023-11-30T12:53:23.585Z,13.48
2023-11-30T12:56:28.860Z,16.13
2023-11-30T12:59:31.637Z,16.23
2023-11-30T13:02:34.375Z,17.90
2023-11-30T13:05:37.060Z,16.33
2023-11-30T13:08:39.720Z,13.80
2023-11-30T13:11:43.475Z,14.32
2023-11-30T13:14:46.102Z,14.73
2023-11-30T13:17:49.356Z,15.00
2023-11-30T13:20:52.110Z,14.80
2023-11-30T13:23:54.765Z,15.05
2023-11-30T13:26:57.417Z,15.50
2023-11-30T13:30:01.146Z,14.90
2023-11-30T13:33:05.719Z,15.50
2023-11-30T13:36:09.183Z,16.10
2023-11-30T13:39:12.135Z,16.30
2023-11-30T13:42:14.857Z,15.02
2023-11-30T13:45:17.731Z,16.77
2023-11-30T13:48:20.541Z,16.13
2023-11-30T13:51:23.639Z,17.00
2023-11-30T13:54:26.559Z,16.27
2023-11-30T13:57:29.400Z,16.35
2023-11-30T14:00:35.475Z,15.87
2023-11-30T14:03:38.916Z,17.90
2023-11-30T14:06:42.262Z,23.60
2023-11-30T14:09:45.320Z,16.75
2023-11-30T14:12:48.556Z,17.15
2023-11-30T14:15:51.357Z,18.73
2023-11-30T14:18:54.087Z,17.63
2023-11-30T14:21:56.831Z,17.85
2023-11-30T14:25:00.438Z,18.35
2023-11-30T14:28:07.821Z,18.25
2023-11-30T14:31:19.481Z,15.70
2023-11-30T14:34:22.372Z,18.27
2023-11-30T14:37:25.119Z,18.10
2023-11-30T14:40:28.189Z,16.10
2023-11-30T14:43:31.111Z,17.02
2023-11-30T14:46:35.216Z,17.33
2023-11-30T14:49:39.052Z,17.43
2023-11-30T14:52:45.475Z,18.88
2023-11-30T14:55:49.594Z,18.35
2023-11-30T14:58:52.757Z,18.65
2023-11-30T15:01:55.531Z,21.63
2023-11-30T15:04:58.323Z,22.43
2023-11-30T15:08:00.964Z,24.65
2023-11-30T15:11:03.823Z,27.25
2023-11-30T15:14:06.766Z,26.52
2023-11-30T15:17:11.201Z,23.33
2023-11-30T15:20:14.545Z,22.67
2023-11-30T15:23:17.446Z,20.90
2023-11-30T15:26:20.035Z,18.65
2023-11-30T15:29:22.747Z,18.92
2023-11-30T15:32:25.438Z,17.47
2023-11-30T15:35:29.776Z,19.83
2023-11-30T15:38:34.107Z,20.02
2023-11-30T15:41:40.847Z,19.42
2023-11-30T15:44:43.702Z,17.05
2023-11-30T15:47:46.608Z,17.83
2023-11-30T15:50:49.343Z,19.17
2023-11-30T15:53:52.836Z,18.73
2023-11-30T15:56:58.044Z,15.70
2023-11-30T16:00:00.724Z,20.70
2023-11-30T16:03:05.769Z,24.57
2023-11-30T16:06:12.058Z,25.10
2023-11-30T16:09:14.764Z,22.60
2023-11-30T16:12:17.468Z,19.98
2023-11-30T16:15:20.209Z,19.42
2023-11-30T16:18:23.415Z,23.97
2023-11-30T16:21:28.710Z,18.83
2023-11-30T16:24:31.992Z,16.85
2023-11-30T16:27:34.692Z,17.75
2023-11-30T16:30:37.403Z,19.00
2023-11-30T16:33:43.156Z,19.83
2023-11-30T16:36:46.804Z,18.87
2023-11-30T16:39:49.742Z,17.77
2023-11-30T16:42:52.510Z,16.85
2023-11-30T16:45:55.322Z,16.02
2023-11-30T16:48:59.224Z,17.63
2023-11-30T16:52:02.023Z,15.70
2023-11-30T16:55:05.395Z,17.27
2023-11-30T16:58:08.035Z,16.23
2023-11-30T17:01:11.340Z,16.58
2023-11-30T17:04:14.179Z,18.20
2023-11-30T17:07:16.822Z,17.57
2023-11-30T17:10:19.486Z,18.67
2023-11-30T17:13:23.613Z,17.27
2023-11-30T17:16:26.428Z,18.45
2023-11-30T17:19:29.157Z,26.33
2023-11-30T17:22:31.881Z,23.80
2023-11-30T17:25:34.474Z,22.48
2023-11-30T17:28:37.508Z,23.00
2023-11-30T17:31:40.223Z,24.45
2023-11-30T17:34:43.156Z,21.03
2023-11-30T17:37:45.947Z,23.57
2023-11-30T17:40:48.666Z,20.75
2023-11-30T17:43:51.391Z,20.20
2023-11-30T17:46:54.346Z,19.90
2023-11-30T17:49:57.199Z,19.97
2023-11-30T17:53:02.001Z,17.97
2023-11-30T17:56:05.100Z,18.58
2023-11-30T17:59:07.818Z,27.48
2023-11-30T18:02:10.826Z,19.15
2023-11-30T18:05:13.774Z,21.63
2023-11-30T18:08:16.444Z,21.73
2023-11-30T18:11:19.428Z,20.77
2023-11-30T18:14:23.553Z,18.30
2023-11-30T18:17:26.319Z,19.38
2023-11-30T18:20:29.101Z,16.97
2023-11-30T18:23:31.747Z,17.83
2023-11-30T18:26:34.443Z,19.88
2023-11-30T18:29:37.134Z,22.02
2023-11-30T18:32:43.169Z,19.35
2023-11-30T18:35:46.694Z,18.87
2023-11-30T18:38:51.574Z,17.77
2023-11-30T18:41:56.336Z,18.10
2023-11-30T18:44:59.135Z,18.98
2023-11-30T18:48:01.941Z,21.70
2023-11-30T18:51:06.822Z,19.53
2023-11-30T18:54:09.564Z,19.17
2023-11-30T18:57:12.241Z,19.27
2023-11-30T19:00:15.580Z,16.52
2023-11-30T19:03:18.285Z,21.33
2023-11-30T19:06:22.472Z,25.23
2023-11-30T19:09:25.229Z,26.93
2023-11-30T19:12:27.915Z,25.67
2023-11-30T19:15:34.030Z,26.33
2023-11-30T19:18:36.862Z,23.83
2023-11-30T19:21:43.644Z,23.73
2023-11-30T19:24:46.415Z,23.83
2023-11-30T19:27:49.254Z,23.77
2023-11-30T19:30:51.949Z,25.42
2023-11-30T19:33:54.667Z,23.92
2023-11-30T19:36:57.471Z,25.93
2023-11-30T19:40:02.279Z,24.47
2023-11-30T19:43:05.427Z,25.67
2023-11-30T19:46:08.163Z,26.48
2023-11-30T19:49:10.905Z,30.70
2023-11-30T19:52:13.815Z,52.07
2023-11-30T19:55:16.521Z,32.33
2023-11-30T19:58:19.158Z,34.63
2023-11-30T20:01:25.023Z,42.60
2023-11-30T20:04:28.521Z,41.83
2023-11-30T20:07:31.262Z,42.37
2023-11-30T20:10:33.923Z,37.10
2023-11-30T20:13:36.715Z,40.05
2023-11-30T20:16:43.104Z,37.70
2023-11-30T20:19:45.854Z,40.88
2023-11-30T20:22:48.491Z,36.33
2023-11-30T20:25:51.659Z,53.40
2023-11-30T20:28:54.314Z,50.17
2023-11-30T20:31:56.998Z,45.92
2023-11-30T20:34:59.673Z,42.33
2023-11-30T20:38:02.499Z,41.60
2023-11-30T20:41:05.535Z,35.00
2023-11-30T20:44:08.334Z,37.92
2023-11-30T20:47:10.982Z,43.30
2023-11-30T20:50:13.729Z,46.38
2023-11-30T20:53:16.388Z,50.40
2023-11-30T20:56:19.125Z,86.67
2023-11-30T20:59:21.763Z,57.78
2023-11-30T21:02:24.615Z,53.47
2023-11-30T21:05:27.503Z,48.28
2023-11-30T21:08:33.650Z,54.77
2023-11-30T21:11:42.421Z,53.90
2023-11-30T21:14:46.123Z,49.08
2023-11-30T21:17:48.819Z,48.33
2023-11-30T21:20:51.615Z,46.00
2023-11-30T21:23:54.398Z,46.53
2023-11-30T21:26:57.142Z,45.17
2023-11-30T21:30:00.037Z,51.20
2023-11-30T21:33:02.794Z,51.40
2023-11-30T21:36:05.983Z,45.70
2023-11-30T21:39:10.139Z,50.23
2023-11-30T21:42:12.838Z,47.80
2023-11-30T21:45:15.575Z,79.25
2023-11-30T21:48:18.344Z,84.93
2023-11-30T21:51:21.020Z,57.28
2023-11-30T21:54:23.667Z,51.37
2023-11-30T21:57:26.637Z,29.20
2023-11-30T22:00:29.400Z,25.95
2023-11-30T22:03:32.315Z,25.13
2023-11-30T22:06:35.171Z,39.33
2023-11-30T22:09:39.150Z,28.80
2023-11-30T22:12:42.502Z,32.33
2023-11-30T22:15:45.234Z,29.27
2023-11-30T22:18:47.964Z,27.67
2023-11-30T22:21:50.649Z,23.73
2023-11-30T22:24:53.372Z,23.70
2023-11-30T22:27:56.243Z,24.10
2023-11-30T22:30:59.807Z,22.45
2023-11-30T22:34:02.660Z,15.95
2023-11-30T22:37:05.475Z,18.85
2023-11-30T22:40:09.128Z,17.93
2023-11-30T22:43:11.830Z,17.33
2023-11-30T22:46:19.105Z,20.25
2023-11-30T22:49:22.188Z,25.05
2023-11-30T22:52:26.765Z,21.35
2023-11-30T22:55:29.647Z,19.20
2023-11-30T22:58:32.386Z,20.80
2023-11-30T23:01:35.563Z,16.92
2023-11-30T23:04:39.636Z,14.60
2023-11-30T23:07:44.260Z,12.98
2023-11-30T23:10:46.899Z,13.50
2023-11-30T23:13:49.524Z,12.77
2023-11-30T23:16:52.210Z,13.07
2023-11-30T23:19:54.866Z,13.90
2023-11-30T23:22:57.519Z,16.55
2023-11-30T23:26:01.054Z,13.03
2023-11-30T23:29:04.352Z,13.83
2023-11-30T23:32:07.840Z,12.60
2023-11-30T23:35:10.455Z,13.85
2023-11-30T23:38:13.136Z,13.07
2023-11-30T23:41:15.885Z,13.50
2023-11-30T23:44:18.574Z,13.03
2023-11-30T23:47:21.226Z,12.98
2023-11-30T23:50:23.906Z,13.88
2023-11-30T23:53:26.560Z,14.40
2023-11-30T23:56:29.189Z,15.33
2023-11-30T23:59:31.926Z,14.53
